<?xml version="1.0" encoding="UTF-8" standalone="no" ?>
<gpx xmlns="http://www.topografix.com/GPX/1/1" xmlns:xsi="http://www.w3.org/2001/XMLSchema-instance" xsi:schemaLocation="http://www.topografix.com/GPX/1/1 http://www.topografix.com/GPX/1/1/gpx.xsd" version="1.1" creator="VisuGPX - https://www.visugpx.com">
  <metadata>
    <name>le Queyrellet en boucle par le vallon du Beaubardon</name>
    <desc><![CDATA[Les copains randonneurs du 04
départ parking sous le Pied du Mélezet
Rando physique ]]></desc>
  </metadata>
  <wpt lat="44.65214" lon="6.79029">
    <ele>1673</ele>
    <name><![CDATA[Point de passage 1]]></name>
    <type><![CDATA[GENERIC]]></type>
  </wpt>
  <wpt lat="44.65212" lon="6.79011">
    <ele>1671</ele>
    <name><![CDATA[Point de passage 2]]></name>
    <type><![CDATA[GENERIC]]></type>
  </wpt>
  <trk>
    <name><![CDATA[AAAA-08-30 16:04:54]]></name>
    <trkseg>
      <trkpt lat="44.65214" lon="6.79029">
        <ele>1673</ele>
        <time>2026-08-30T06:05:29.000Z</time>
      </trkpt>
      <trkpt lat="44.65205" lon="6.79039">
        <ele>1674</ele>
        <time>2026-08-30T06:06:06.000Z</time>
      </trkpt>
      <trkpt lat="44.651" lon="6.79085">
        <ele>1676</ele>
        <time>2026-08-30T06:08:07.000Z</time>
      </trkpt>
      <trkpt lat="44.65033" lon="6.79148">
        <ele>1679</ele>
        <time>2026-08-30T06:09:19.000Z</time>
      </trkpt>
      <trkpt lat="44.64992" lon="6.79168">
        <ele>1681</ele>
        <time>2026-08-30T06:10:08.000Z</time>
      </trkpt>
      <trkpt lat="44.64987" lon="6.79184">
        <ele>1684</ele>
        <time>2026-08-30T06:10:32.000Z</time>
      </trkpt>
      <trkpt lat="44.64998" lon="6.79201">
        <ele>1686</ele>
        <time>2026-08-30T06:10:50.000Z</time>
      </trkpt>
      <trkpt lat="44.65007" lon="6.79206">
        <ele>1687</ele>
        <time>2026-08-30T06:11:06.000Z</time>
      </trkpt>
      <trkpt lat="44.65036" lon="6.79275">
        <ele>1698</ele>
        <time>2026-08-30T06:12:19.000Z</time>
      </trkpt>
      <trkpt lat="44.65053" lon="6.79294">
        <ele>1702</ele>
        <time>2026-08-30T06:13:16.000Z</time>
      </trkpt>
      <trkpt lat="44.65051" lon="6.79314">
        <ele>1704</ele>
        <time>2026-08-30T06:13:58.000Z</time>
      </trkpt>
      <trkpt lat="44.65057" lon="6.79323">
        <ele>1706</ele>
        <time>2026-08-30T06:14:10.000Z</time>
      </trkpt>
      <trkpt lat="44.65087" lon="6.79336">
        <ele>1711</ele>
        <time>2026-08-30T06:14:46.000Z</time>
      </trkpt>
      <trkpt lat="44.65102" lon="6.79353">
        <ele>1715</ele>
        <time>2026-08-30T06:15:10.000Z</time>
      </trkpt>
      <trkpt lat="44.65126" lon="6.79399">
        <ele>1725</ele>
        <time>2026-08-30T06:16:29.000Z</time>
      </trkpt>
      <trkpt lat="44.65133" lon="6.79423">
        <ele>1729</ele>
        <time>2026-08-30T06:16:58.000Z</time>
      </trkpt>
      <trkpt lat="44.65135" lon="6.7942">
        <ele>1729</ele>
        <time>2026-08-30T06:17:39.000Z</time>
      </trkpt>
      <trkpt lat="44.65135" lon="6.79426">
        <ele>1730</ele>
        <time>2026-08-30T06:19:24.000Z</time>
      </trkpt>
      <trkpt lat="44.65188" lon="6.79402">
        <ele>1730</ele>
        <time>2026-08-30T06:21:03.000Z</time>
      </trkpt>
      <trkpt lat="44.65244" lon="6.79356">
        <ele>1731</ele>
        <time>2026-08-30T06:22:09.000Z</time>
      </trkpt>
      <trkpt lat="44.65282" lon="6.79345">
        <ele>1736</ele>
        <time>2026-08-30T06:22:42.000Z</time>
      </trkpt>
      <trkpt lat="44.65351" lon="6.79304">
        <ele>1732</ele>
        <time>2026-08-30T06:23:52.000Z</time>
      </trkpt>
      <trkpt lat="44.65401" lon="6.79285">
        <ele>1734</ele>
        <time>2026-08-30T06:24:37.000Z</time>
      </trkpt>
      <trkpt lat="44.65467" lon="6.79223">
        <ele>1727</ele>
        <time>2026-08-30T06:25:55.000Z</time>
      </trkpt>
      <trkpt lat="44.65503" lon="6.7922">
        <ele>1732</ele>
        <time>2026-08-30T06:26:27.000Z</time>
      </trkpt>
      <trkpt lat="44.65518" lon="6.79213">
        <ele>1732</ele>
        <time>2026-08-30T06:26:41.000Z</time>
      </trkpt>
      <trkpt lat="44.6554" lon="6.79186">
        <ele>1730</ele>
        <time>2026-08-30T06:27:07.000Z</time>
      </trkpt>
      <trkpt lat="44.65562" lon="6.79139">
        <ele>1732</ele>
        <time>2026-08-30T06:27:39.000Z</time>
      </trkpt>
      <trkpt lat="44.65578" lon="6.79052">
        <ele>1720</ele>
        <time>2026-08-30T06:28:35.000Z</time>
      </trkpt>
      <trkpt lat="44.65592" lon="6.79039">
        <ele>1721</ele>
        <time>2026-08-30T06:28:52.000Z</time>
      </trkpt>
      <trkpt lat="44.65605" lon="6.79038">
        <ele>1722</ele>
        <time>2026-08-30T06:29:09.000Z</time>
      </trkpt>
      <trkpt lat="44.65638" lon="6.79057">
        <ele>1730</ele>
        <time>2026-08-30T06:29:44.000Z</time>
      </trkpt>
      <trkpt lat="44.65652" lon="6.79054">
        <ele>1730</ele>
        <time>2026-08-30T06:29:55.000Z</time>
      </trkpt>
      <trkpt lat="44.6567" lon="6.79035">
        <ele>1725</ele>
        <time>2026-08-30T06:30:14.000Z</time>
      </trkpt>
      <trkpt lat="44.65695" lon="6.79023">
        <ele>1723</ele>
        <time>2026-08-30T06:31:17.000Z</time>
      </trkpt>
      <trkpt lat="44.65713" lon="6.79027">
        <ele>1727</ele>
        <time>2026-08-30T06:31:58.000Z</time>
      </trkpt>
      <trkpt lat="44.65738" lon="6.79018">
        <ele>1727</ele>
        <time>2026-08-30T06:32:26.000Z</time>
      </trkpt>
      <trkpt lat="44.65753" lon="6.79003">
        <ele>1727</ele>
        <time>2026-08-30T06:32:45.000Z</time>
      </trkpt>
      <trkpt lat="44.65787" lon="6.78989">
        <ele>1731</ele>
        <time>2026-08-30T06:33:19.000Z</time>
      </trkpt>
      <trkpt lat="44.65827" lon="6.78956">
        <ele>1732</ele>
        <time>2026-08-30T06:34:05.000Z</time>
      </trkpt>
      <trkpt lat="44.65854" lon="6.7894">
        <ele>1735</ele>
        <time>2026-08-30T06:34:37.000Z</time>
      </trkpt>
      <trkpt lat="44.65895" lon="6.78888">
        <ele>1731</ele>
        <time>2026-08-30T06:35:32.000Z</time>
      </trkpt>
      <trkpt lat="44.65909" lon="6.78884">
        <ele>1736</ele>
        <time>2026-08-30T06:35:47.000Z</time>
      </trkpt>
      <trkpt lat="44.65934" lon="6.78839">
        <ele>1732</ele>
        <time>2026-08-30T06:36:25.000Z</time>
      </trkpt>
      <trkpt lat="44.65948" lon="6.78798">
        <ele>1732</ele>
        <time>2026-08-30T06:36:59.000Z</time>
      </trkpt>
      <trkpt lat="44.65961" lon="6.78779">
        <ele>1732</ele>
        <time>2026-08-30T06:37:16.000Z</time>
      </trkpt>
      <trkpt lat="44.65989" lon="6.78758">
        <ele>1735</ele>
        <time>2026-08-30T06:37:51.000Z</time>
      </trkpt>
      <trkpt lat="44.66049" lon="6.78744">
        <ele>1746</ele>
        <time>2026-08-30T06:39:07.000Z</time>
      </trkpt>
      <trkpt lat="44.66063" lon="6.7875">
        <ele>1750</ele>
        <time>2026-08-30T06:39:26.000Z</time>
      </trkpt>
      <trkpt lat="44.66078" lon="6.78744">
        <ele>1751</ele>
        <time>2026-08-30T06:39:44.000Z</time>
      </trkpt>
      <trkpt lat="44.66101" lon="6.78711">
        <ele>1747</ele>
        <time>2026-08-30T06:40:17.000Z</time>
      </trkpt>
      <trkpt lat="44.66112" lon="6.78706">
        <ele>1749</ele>
        <time>2026-08-30T06:40:33.000Z</time>
      </trkpt>
      <trkpt lat="44.66124" lon="6.78713">
        <ele>1753</ele>
        <time>2026-08-30T06:40:48.000Z</time>
      </trkpt>
      <trkpt lat="44.6614" lon="6.7876">
        <ele>1767</ele>
        <time>2026-08-30T06:42:08.000Z</time>
      </trkpt>
      <trkpt lat="44.6614" lon="6.78773">
        <ele>1769</ele>
        <time>2026-08-30T06:42:24.000Z</time>
      </trkpt>
      <trkpt lat="44.6613" lon="6.78784">
        <ele>1769</ele>
        <time>2026-08-30T06:42:41.000Z</time>
      </trkpt>
      <trkpt lat="44.66129" lon="6.78799">
        <ele>1772</ele>
        <time>2026-08-30T06:42:57.000Z</time>
      </trkpt>
      <trkpt lat="44.66146" lon="6.78811">
        <ele>1778</ele>
        <time>2026-08-30T06:43:27.000Z</time>
      </trkpt>
      <trkpt lat="44.66159" lon="6.78811">
        <ele>1782</ele>
        <time>2026-08-30T06:43:41.000Z</time>
      </trkpt>
      <trkpt lat="44.66182" lon="6.78799">
        <ele>1787</ele>
        <time>2026-08-30T06:44:11.000Z</time>
      </trkpt>
      <trkpt lat="44.66237" lon="6.78753">
        <ele>1797</ele>
        <time>2026-08-30T06:45:40.000Z</time>
      </trkpt>
      <trkpt lat="44.6624" lon="6.78767">
        <ele>1799</ele>
        <time>2026-08-30T06:45:54.000Z</time>
      </trkpt>
      <trkpt lat="44.66246" lon="6.7877">
        <ele>1800</ele>
        <time>2026-08-30T06:46:11.000Z</time>
      </trkpt>
      <trkpt lat="44.66253" lon="6.78762">
        <ele>1802</ele>
        <time>2026-08-30T06:46:28.000Z</time>
      </trkpt>
      <trkpt lat="44.6626" lon="6.78783">
        <ele>1807</ele>
        <time>2026-08-30T06:46:45.000Z</time>
      </trkpt>
      <trkpt lat="44.6625" lon="6.78826">
        <ele>1812</ele>
        <time>2026-08-30T06:47:26.000Z</time>
      </trkpt>
      <trkpt lat="44.66264" lon="6.78843">
        <ele>1820</ele>
        <time>2026-08-30T06:47:57.000Z</time>
      </trkpt>
      <trkpt lat="44.66301" lon="6.78832">
        <ele>1825</ele>
        <time>2026-08-30T06:49:26.000Z</time>
      </trkpt>
      <trkpt lat="44.6636" lon="6.78848">
        <ele>1839</ele>
        <time>2026-08-30T06:53:25.000Z</time>
      </trkpt>
      <trkpt lat="44.66371" lon="6.7884">
        <ele>1840</ele>
        <time>2026-08-30T06:53:42.000Z</time>
      </trkpt>
      <trkpt lat="44.66449" lon="6.78823">
        <ele>1850</ele>
        <time>2026-08-30T06:55:11.000Z</time>
      </trkpt>
      <trkpt lat="44.66476" lon="6.78806">
        <ele>1852</ele>
        <time>2026-08-30T06:55:40.000Z</time>
      </trkpt>
      <trkpt lat="44.66504" lon="6.78774">
        <ele>1853</ele>
        <time>2026-08-30T06:56:16.000Z</time>
      </trkpt>
      <trkpt lat="44.66525" lon="6.78757">
        <ele>1854</ele>
        <time>2026-08-30T06:56:48.000Z</time>
      </trkpt>
      <trkpt lat="44.66556" lon="6.7875">
        <ele>1859</ele>
        <time>2026-08-30T06:57:59.000Z</time>
      </trkpt>
      <trkpt lat="44.66564" lon="6.78732">
        <ele>1858</ele>
        <time>2026-08-30T06:59:14.000Z</time>
      </trkpt>
      <trkpt lat="44.66598" lon="6.78688">
        <ele>1854</ele>
        <time>2026-08-30T07:00:02.000Z</time>
      </trkpt>
      <trkpt lat="44.66623" lon="6.78641">
        <ele>1850</ele>
        <time>2026-08-30T07:00:38.000Z</time>
      </trkpt>
      <trkpt lat="44.66642" lon="6.78629">
        <ele>1850</ele>
        <time>2026-08-30T07:01:16.000Z</time>
      </trkpt>
      <trkpt lat="44.66678" lon="6.78623">
        <ele>1854</ele>
        <time>2026-08-30T07:02:48.000Z</time>
      </trkpt>
      <trkpt lat="44.66741" lon="6.78578">
        <ele>1847</ele>
        <time>2026-08-30T07:03:48.000Z</time>
      </trkpt>
      <trkpt lat="44.66761" lon="6.78544">
        <ele>1843</ele>
        <time>2026-08-30T07:04:10.000Z</time>
      </trkpt>
      <trkpt lat="44.66832" lon="6.78471">
        <ele>1836</ele>
        <time>2026-08-30T07:05:31.000Z</time>
      </trkpt>
      <trkpt lat="44.66872" lon="6.78469">
        <ele>1838</ele>
        <time>2026-08-30T07:06:10.000Z</time>
      </trkpt>
      <trkpt lat="44.66889" lon="6.78478">
        <ele>1835</ele>
        <time>2026-08-30T07:06:29.000Z</time>
      </trkpt>
      <trkpt lat="44.66917" lon="6.78504">
        <ele>1835</ele>
        <time>2026-08-30T07:07:00.000Z</time>
      </trkpt>
      <trkpt lat="44.66942" lon="6.78544">
        <ele>1832</ele>
        <time>2026-08-30T07:07:30.000Z</time>
      </trkpt>
      <trkpt lat="44.66967" lon="6.78608">
        <ele>1836</ele>
        <time>2026-08-30T07:08:27.000Z</time>
      </trkpt>
      <trkpt lat="44.66997" lon="6.78629">
        <ele>1829</ele>
        <time>2026-08-30T07:09:09.000Z</time>
      </trkpt>
      <trkpt lat="44.6701" lon="6.78646">
        <ele>1828</ele>
        <time>2026-08-30T07:09:25.000Z</time>
      </trkpt>
      <trkpt lat="44.67027" lon="6.78704">
        <ele>1834</ele>
        <time>2026-08-30T07:10:04.000Z</time>
      </trkpt>
      <trkpt lat="44.67038" lon="6.78723">
        <ele>1834</ele>
        <time>2026-08-30T07:10:22.000Z</time>
      </trkpt>
      <trkpt lat="44.67072" lon="6.78749">
        <ele>1826</ele>
        <time>2026-08-30T07:10:58.000Z</time>
      </trkpt>
      <trkpt lat="44.6708" lon="6.78785">
        <ele>1833</ele>
        <time>2026-08-30T07:11:19.000Z</time>
      </trkpt>
      <trkpt lat="44.67092" lon="6.78805">
        <ele>1832</ele>
        <time>2026-08-30T07:11:36.000Z</time>
      </trkpt>
      <trkpt lat="44.67124" lon="6.78822">
        <ele>1827</ele>
        <time>2026-08-30T07:12:03.000Z</time>
      </trkpt>
      <trkpt lat="44.6714" lon="6.78837">
        <ele>1825</ele>
        <time>2026-08-30T07:12:20.000Z</time>
      </trkpt>
      <trkpt lat="44.67144" lon="6.7883">
        <ele>1821</ele>
        <time>2026-08-30T07:12:44.000Z</time>
      </trkpt>
      <trkpt lat="44.67143" lon="6.7882">
        <ele>1820</ele>
        <time>2026-08-30T07:13:19.000Z</time>
      </trkpt>
      <trkpt lat="44.67169" lon="6.78859">
        <ele>1819</ele>
        <time>2026-08-30T07:15:19.000Z</time>
      </trkpt>
      <trkpt lat="44.6718" lon="6.78922">
        <ele>1823</ele>
        <time>2026-08-30T07:16:00.000Z</time>
      </trkpt>
      <trkpt lat="44.67196" lon="6.78956">
        <ele>1815</ele>
        <time>2026-08-30T07:16:23.000Z</time>
      </trkpt>
      <trkpt lat="44.67199" lon="6.79008">
        <ele>1818</ele>
        <time>2026-08-30T07:16:51.000Z</time>
      </trkpt>
      <trkpt lat="44.67213" lon="6.79037">
        <ele>1816</ele>
        <time>2026-08-30T07:17:08.000Z</time>
      </trkpt>
      <trkpt lat="44.67229" lon="6.79052">
        <ele>1812</ele>
        <time>2026-08-30T07:17:24.000Z</time>
      </trkpt>
      <trkpt lat="44.67246" lon="6.79084">
        <ele>1809</ele>
        <time>2026-08-30T07:17:48.000Z</time>
      </trkpt>
      <trkpt lat="44.67254" lon="6.79138">
        <ele>1816</ele>
        <time>2026-08-30T07:18:23.000Z</time>
      </trkpt>
      <trkpt lat="44.67263" lon="6.7916">
        <ele>1814</ele>
        <time>2026-08-30T07:18:40.000Z</time>
      </trkpt>
      <trkpt lat="44.67295" lon="6.79189">
        <ele>1803</ele>
        <time>2026-08-30T07:19:10.000Z</time>
      </trkpt>
      <trkpt lat="44.67315" lon="6.79269">
        <ele>1802</ele>
        <time>2026-08-30T07:19:59.000Z</time>
      </trkpt>
      <trkpt lat="44.67326" lon="6.79293">
        <ele>1799</ele>
        <time>2026-08-30T07:20:14.000Z</time>
      </trkpt>
      <trkpt lat="44.67368" lon="6.79341">
        <ele>1784</ele>
        <time>2026-08-30T07:20:55.000Z</time>
      </trkpt>
      <trkpt lat="44.67405" lon="6.79404">
        <ele>1781</ele>
        <time>2026-08-30T07:21:43.000Z</time>
      </trkpt>
      <trkpt lat="44.67432" lon="6.79432">
        <ele>1774</ele>
        <time>2026-08-30T07:22:16.000Z</time>
      </trkpt>
      <trkpt lat="44.67449" lon="6.79482">
        <ele>1776</ele>
        <time>2026-08-30T07:22:52.000Z</time>
      </trkpt>
      <trkpt lat="44.67459" lon="6.7947">
        <ele>1770</ele>
        <time>2026-08-30T07:23:08.000Z</time>
      </trkpt>
      <trkpt lat="44.67462" lon="6.79474">
        <ele>1771</ele>
        <time>2026-08-30T07:23:30.000Z</time>
      </trkpt>
      <trkpt lat="44.67471" lon="6.7945">
        <ele>1766</ele>
        <time>2026-08-30T07:23:47.000Z</time>
      </trkpt>
      <trkpt lat="44.67486" lon="6.79436">
        <ele>1767</ele>
        <time>2026-08-30T07:24:23.000Z</time>
      </trkpt>
      <trkpt lat="44.67514" lon="6.79472">
        <ele>1774</ele>
        <time>2026-08-30T07:25:19.000Z</time>
      </trkpt>
      <trkpt lat="44.67535" lon="6.79545">
        <ele>1776</ele>
        <time>2026-08-30T07:26:05.000Z</time>
      </trkpt>
      <trkpt lat="44.67543" lon="6.79579">
        <ele>1778</ele>
        <time>2026-08-30T07:26:23.000Z</time>
      </trkpt>
      <trkpt lat="44.67544" lon="6.79629">
        <ele>1782</ele>
        <time>2026-08-30T07:26:56.000Z</time>
      </trkpt>
      <trkpt lat="44.67538" lon="6.79706">
        <ele>1785</ele>
        <time>2026-08-30T07:27:35.000Z</time>
      </trkpt>
      <trkpt lat="44.67543" lon="6.79716">
        <ele>1787</ele>
        <time>2026-08-30T07:28:57.000Z</time>
      </trkpt>
      <trkpt lat="44.67538" lon="6.79712">
        <ele>1785</ele>
        <time>2026-08-30T07:30:26.000Z</time>
      </trkpt>
      <trkpt lat="44.67541" lon="6.79724">
        <ele>1787</ele>
        <time>2026-08-30T07:31:51.000Z</time>
      </trkpt>
      <trkpt lat="44.67538" lon="6.79721">
        <ele>1786</ele>
        <time>2026-08-30T07:32:43.000Z</time>
      </trkpt>
      <trkpt lat="44.67539" lon="6.79724">
        <ele>1786</ele>
        <time>2026-08-30T07:33:11.000Z</time>
      </trkpt>
      <trkpt lat="44.67536" lon="6.79726">
        <ele>1786</ele>
        <time>2026-08-30T07:34:05.000Z</time>
      </trkpt>
      <trkpt lat="44.67531" lon="6.7976">
        <ele>1786</ele>
        <time>2026-08-30T07:34:34.000Z</time>
      </trkpt>
      <trkpt lat="44.67514" lon="6.79816">
        <ele>1788</ele>
        <time>2026-08-30T07:35:13.000Z</time>
      </trkpt>
      <trkpt lat="44.67518" lon="6.79837">
        <ele>1788</ele>
        <time>2026-08-30T07:35:33.000Z</time>
      </trkpt>
      <trkpt lat="44.67501" lon="6.79871">
        <ele>1787</ele>
        <time>2026-08-30T07:36:03.000Z</time>
      </trkpt>
      <trkpt lat="44.67489" lon="6.79916">
        <ele>1789</ele>
        <time>2026-08-30T07:36:33.000Z</time>
      </trkpt>
      <trkpt lat="44.67486" lon="6.79941">
        <ele>1791</ele>
        <time>2026-08-30T07:36:51.000Z</time>
      </trkpt>
      <trkpt lat="44.67489" lon="6.7998">
        <ele>1793</ele>
        <time>2026-08-30T07:37:17.000Z</time>
      </trkpt>
      <trkpt lat="44.67506" lon="6.80053">
        <ele>1801</ele>
        <time>2026-08-30T07:38:05.000Z</time>
      </trkpt>
      <trkpt lat="44.67511" lon="6.80059">
        <ele>1803</ele>
        <time>2026-08-30T07:38:19.000Z</time>
      </trkpt>
      <trkpt lat="44.67493" lon="6.80089">
        <ele>1802</ele>
        <time>2026-08-30T07:38:46.000Z</time>
      </trkpt>
      <trkpt lat="44.67486" lon="6.80111">
        <ele>1802</ele>
        <time>2026-08-30T07:38:58.000Z</time>
      </trkpt>
      <trkpt lat="44.67487" lon="6.80171">
        <ele>1805</ele>
        <time>2026-08-30T07:39:34.000Z</time>
      </trkpt>
      <trkpt lat="44.67484" lon="6.80199">
        <ele>1804</ele>
        <time>2026-08-30T07:39:52.000Z</time>
      </trkpt>
      <trkpt lat="44.67498" lon="6.80294">
        <ele>1812</ele>
        <time>2026-08-30T07:40:47.000Z</time>
      </trkpt>
      <trkpt lat="44.67497" lon="6.80323">
        <ele>1812</ele>
        <time>2026-08-30T07:41:05.000Z</time>
      </trkpt>
      <trkpt lat="44.67491" lon="6.80347">
        <ele>1811</ele>
        <time>2026-08-30T07:41:20.000Z</time>
      </trkpt>
      <trkpt lat="44.67468" lon="6.80393">
        <ele>1811</ele>
        <time>2026-08-30T07:41:54.000Z</time>
      </trkpt>
      <trkpt lat="44.67469" lon="6.80408">
        <ele>1812</ele>
        <time>2026-08-30T07:42:28.000Z</time>
      </trkpt>
      <trkpt lat="44.67447" lon="6.80518">
        <ele>1817</ele>
        <time>2026-08-30T07:43:34.000Z</time>
      </trkpt>
      <trkpt lat="44.67417" lon="6.80593">
        <ele>1819</ele>
        <time>2026-08-30T07:44:22.000Z</time>
      </trkpt>
      <trkpt lat="44.67406" lon="6.80666">
        <ele>1824</ele>
        <time>2026-08-30T07:45:08.000Z</time>
      </trkpt>
      <trkpt lat="44.674" lon="6.80671">
        <ele>1822</ele>
        <time>2026-08-30T07:45:26.000Z</time>
      </trkpt>
      <trkpt lat="44.67392" lon="6.80713">
        <ele>1823</ele>
        <time>2026-08-30T07:45:52.000Z</time>
      </trkpt>
      <trkpt lat="44.67349" lon="6.80776">
        <ele>1826</ele>
        <time>2026-08-30T07:46:41.000Z</time>
      </trkpt>
      <trkpt lat="44.67281" lon="6.80841">
        <ele>1826</ele>
        <time>2026-08-30T07:48:12.000Z</time>
      </trkpt>
      <trkpt lat="44.67273" lon="6.80864">
        <ele>1829</ele>
        <time>2026-08-30T07:48:51.000Z</time>
      </trkpt>
      <trkpt lat="44.67248" lon="6.80912">
        <ele>1831</ele>
        <time>2026-08-30T07:49:32.000Z</time>
      </trkpt>
      <trkpt lat="44.67216" lon="6.81012">
        <ele>1838</ele>
        <time>2026-08-30T07:50:42.000Z</time>
      </trkpt>
      <trkpt lat="44.67194" lon="6.81056">
        <ele>1840</ele>
        <time>2026-08-30T07:51:15.000Z</time>
      </trkpt>
      <trkpt lat="44.67165" lon="6.8109">
        <ele>1841</ele>
        <time>2026-08-30T07:51:53.000Z</time>
      </trkpt>
      <trkpt lat="44.67165" lon="6.81103">
        <ele>1844</ele>
        <time>2026-08-30T07:52:55.000Z</time>
      </trkpt>
      <trkpt lat="44.67139" lon="6.81119">
        <ele>1843</ele>
        <time>2026-08-30T07:53:32.000Z</time>
      </trkpt>
      <trkpt lat="44.671" lon="6.81172">
        <ele>1846</ele>
        <time>2026-08-30T07:54:18.000Z</time>
      </trkpt>
      <trkpt lat="44.67001" lon="6.81265">
        <ele>1848</ele>
        <time>2026-08-30T07:55:52.000Z</time>
      </trkpt>
      <trkpt lat="44.66985" lon="6.81289">
        <ele>1850</ele>
        <time>2026-08-30T07:56:11.000Z</time>
      </trkpt>
      <trkpt lat="44.66912" lon="6.81436">
        <ele>1859</ele>
        <time>2026-08-30T07:58:01.000Z</time>
      </trkpt>
      <trkpt lat="44.66899" lon="6.81477">
        <ele>1860</ele>
        <time>2026-08-30T07:58:29.000Z</time>
      </trkpt>
      <trkpt lat="44.66889" lon="6.81561">
        <ele>1866</ele>
        <time>2026-08-30T07:59:13.000Z</time>
      </trkpt>
      <trkpt lat="44.66883" lon="6.81579">
        <ele>1865</ele>
        <time>2026-08-30T07:59:28.000Z</time>
      </trkpt>
      <trkpt lat="44.66823" lon="6.81655">
        <ele>1867</ele>
        <time>2026-08-30T08:00:28.000Z</time>
      </trkpt>
      <trkpt lat="44.66823" lon="6.817">
        <ele>1872</ele>
        <time>2026-08-30T08:00:56.000Z</time>
      </trkpt>
      <trkpt lat="44.66816" lon="6.81729">
        <ele>1875</ele>
        <time>2026-08-30T08:01:10.000Z</time>
      </trkpt>
      <trkpt lat="44.66766" lon="6.81878">
        <ele>1878</ele>
        <time>2026-08-30T08:02:57.000Z</time>
      </trkpt>
      <trkpt lat="44.66754" lon="6.81939">
        <ele>1881</ele>
        <time>2026-08-30T08:03:35.000Z</time>
      </trkpt>
      <trkpt lat="44.66742" lon="6.81963">
        <ele>1881</ele>
        <time>2026-08-30T08:03:53.000Z</time>
      </trkpt>
      <trkpt lat="44.66731" lon="6.81957">
        <ele>1879</ele>
        <time>2026-08-30T08:04:08.000Z</time>
      </trkpt>
      <trkpt lat="44.66723" lon="6.81944">
        <ele>1878</ele>
        <time>2026-08-30T08:04:25.000Z</time>
      </trkpt>
      <trkpt lat="44.66726" lon="6.81941">
        <ele>1878</ele>
        <time>2026-08-30T08:05:01.000Z</time>
      </trkpt>
      <trkpt lat="44.66722" lon="6.81949">
        <ele>1878</ele>
        <time>2026-08-30T08:05:17.000Z</time>
      </trkpt>
      <trkpt lat="44.66713" lon="6.81943">
        <ele>1880</ele>
        <time>2026-08-30T08:05:33.000Z</time>
      </trkpt>
      <trkpt lat="44.66716" lon="6.81884">
        <ele>1880</ele>
        <time>2026-08-30T08:06:32.000Z</time>
      </trkpt>
      <trkpt lat="44.6671" lon="6.81851">
        <ele>1883</ele>
        <time>2026-08-30T08:07:03.000Z</time>
      </trkpt>
      <trkpt lat="44.66707" lon="6.81865">
        <ele>1883</ele>
        <time>2026-08-30T08:07:17.000Z</time>
      </trkpt>
      <trkpt lat="44.66695" lon="6.81876">
        <ele>1886</ele>
        <time>2026-08-30T08:07:34.000Z</time>
      </trkpt>
      <trkpt lat="44.66681" lon="6.81875">
        <ele>1891</ele>
        <time>2026-08-30T08:07:54.000Z</time>
      </trkpt>
      <trkpt lat="44.66648" lon="6.8186">
        <ele>1905</ele>
        <time>2026-08-30T08:08:45.000Z</time>
      </trkpt>
      <trkpt lat="44.66597" lon="6.81882">
        <ele>1921</ele>
        <time>2026-08-30T08:09:59.000Z</time>
      </trkpt>
      <trkpt lat="44.66575" lon="6.8188">
        <ele>1934</ele>
        <time>2026-08-30T08:10:35.000Z</time>
      </trkpt>
      <trkpt lat="44.66556" lon="6.81862">
        <ele>1946</ele>
        <time>2026-08-30T08:11:25.000Z</time>
      </trkpt>
      <trkpt lat="44.6656" lon="6.81834">
        <ele>1940</ele>
        <time>2026-08-30T08:11:57.000Z</time>
      </trkpt>
      <trkpt lat="44.66558" lon="6.81828">
        <ele>1941</ele>
        <time>2026-08-30T08:12:15.000Z</time>
      </trkpt>
      <trkpt lat="44.66543" lon="6.8183">
        <ele>1950</ele>
        <time>2026-08-30T08:12:32.000Z</time>
      </trkpt>
      <trkpt lat="44.66529" lon="6.81812">
        <ele>1954</ele>
        <time>2026-08-30T08:13:05.000Z</time>
      </trkpt>
      <trkpt lat="44.66537" lon="6.81784">
        <ele>1954</ele>
        <time>2026-08-30T08:13:40.000Z</time>
      </trkpt>
      <trkpt lat="44.66525" lon="6.81786">
        <ele>1958</ele>
        <time>2026-08-30T08:13:58.000Z</time>
      </trkpt>
      <trkpt lat="44.66512" lon="6.81797">
        <ele>1964</ele>
        <time>2026-08-30T08:14:15.000Z</time>
      </trkpt>
      <trkpt lat="44.66506" lon="6.8181">
        <ele>1968</ele>
        <time>2026-08-30T08:14:32.000Z</time>
      </trkpt>
      <trkpt lat="44.66506" lon="6.81852">
        <ele>1975</ele>
        <time>2026-08-30T08:15:09.000Z</time>
      </trkpt>
      <trkpt lat="44.66488" lon="6.81882">
        <ele>1987</ele>
        <time>2026-08-30T08:15:41.000Z</time>
      </trkpt>
      <trkpt lat="44.66458" lon="6.81914">
        <ele>2000</ele>
        <time>2026-08-30T08:16:45.000Z</time>
      </trkpt>
      <trkpt lat="44.66449" lon="6.81914">
        <ele>2004</ele>
        <time>2026-08-30T08:17:04.000Z</time>
      </trkpt>
      <trkpt lat="44.66455" lon="6.8191">
        <ele>2002</ele>
        <time>2026-08-30T08:17:25.000Z</time>
      </trkpt>
      <trkpt lat="44.6645" lon="6.81908">
        <ele>2004</ele>
        <time>2026-08-30T08:17:39.000Z</time>
      </trkpt>
      <trkpt lat="44.66444" lon="6.81928">
        <ele>2004</ele>
        <time>2026-08-30T08:18:14.000Z</time>
      </trkpt>
      <trkpt lat="44.66438" lon="6.81937">
        <ele>2006</ele>
        <time>2026-08-30T08:18:31.000Z</time>
      </trkpt>
      <trkpt lat="44.66432" lon="6.81937">
        <ele>2010</ele>
        <time>2026-08-30T08:18:45.000Z</time>
      </trkpt>
      <trkpt lat="44.66406" lon="6.81981">
        <ele>2011</ele>
        <time>2026-08-30T08:19:33.000Z</time>
      </trkpt>
      <trkpt lat="44.66358" lon="6.82014">
        <ele>2024</ele>
        <time>2026-08-30T08:20:54.000Z</time>
      </trkpt>
      <trkpt lat="44.66347" lon="6.82031">
        <ele>2021</ele>
        <time>2026-08-30T08:21:27.000Z</time>
      </trkpt>
      <trkpt lat="44.66348" lon="6.82039">
        <ele>2018</ele>
        <time>2026-08-30T08:21:51.000Z</time>
      </trkpt>
      <trkpt lat="44.66344" lon="6.82042">
        <ele>2020</ele>
        <time>2026-08-30T08:22:28.000Z</time>
      </trkpt>
      <trkpt lat="44.66336" lon="6.82035">
        <ele>2025</ele>
        <time>2026-08-30T08:22:44.000Z</time>
      </trkpt>
      <trkpt lat="44.66331" lon="6.8202">
        <ele>2037</ele>
        <time>2026-08-30T08:23:00.000Z</time>
      </trkpt>
      <trkpt lat="44.66323" lon="6.82024">
        <ele>2042</ele>
        <time>2026-08-30T08:23:17.000Z</time>
      </trkpt>
      <trkpt lat="44.66316" lon="6.82036">
        <ele>2038</ele>
        <time>2026-08-30T08:23:35.000Z</time>
      </trkpt>
      <trkpt lat="44.66319" lon="6.82066">
        <ele>2032</ele>
        <time>2026-08-30T08:24:09.000Z</time>
      </trkpt>
      <trkpt lat="44.66306" lon="6.82091">
        <ele>2042</ele>
        <time>2026-08-30T08:24:40.000Z</time>
      </trkpt>
      <trkpt lat="44.66295" lon="6.82064">
        <ele>2045</ele>
        <time>2026-08-30T08:25:33.000Z</time>
      </trkpt>
      <trkpt lat="44.663" lon="6.82058">
        <ele>2041</ele>
        <time>2026-08-30T08:26:24.000Z</time>
      </trkpt>
      <trkpt lat="44.66297" lon="6.82065">
        <ele>2043</ele>
        <time>2026-08-30T08:27:15.000Z</time>
      </trkpt>
      <trkpt lat="44.66283" lon="6.82049">
        <ele>2051</ele>
        <time>2026-08-30T08:27:55.000Z</time>
      </trkpt>
      <trkpt lat="44.66283" lon="6.82081">
        <ele>2053</ele>
        <time>2026-08-30T08:28:28.000Z</time>
      </trkpt>
      <trkpt lat="44.6628" lon="6.82079">
        <ele>2054</ele>
        <time>2026-08-30T08:28:58.000Z</time>
      </trkpt>
      <trkpt lat="44.6628" lon="6.82087">
        <ele>2055</ele>
        <time>2026-08-30T08:29:16.000Z</time>
      </trkpt>
      <trkpt lat="44.66272" lon="6.82099">
        <ele>2062</ele>
        <time>2026-08-30T08:29:32.000Z</time>
      </trkpt>
      <trkpt lat="44.66253" lon="6.82115">
        <ele>2076</ele>
        <time>2026-08-30T08:30:04.000Z</time>
      </trkpt>
      <trkpt lat="44.66253" lon="6.82086">
        <ele>2072</ele>
        <time>2026-08-30T08:30:41.000Z</time>
      </trkpt>
      <trkpt lat="44.66237" lon="6.82096">
        <ele>2085</ele>
        <time>2026-08-30T08:31:15.000Z</time>
      </trkpt>
      <trkpt lat="44.66226" lon="6.82077">
        <ele>2087</ele>
        <time>2026-08-30T08:31:48.000Z</time>
      </trkpt>
      <trkpt lat="44.66223" lon="6.82081">
        <ele>2091</ele>
        <time>2026-08-30T08:32:05.000Z</time>
      </trkpt>
      <trkpt lat="44.66219" lon="6.82099">
        <ele>2096</ele>
        <time>2026-08-30T08:32:40.000Z</time>
      </trkpt>
      <trkpt lat="44.662" lon="6.82112">
        <ele>2105</ele>
        <time>2026-08-30T08:33:10.000Z</time>
      </trkpt>
      <trkpt lat="44.66201" lon="6.82101">
        <ele>2106</ele>
        <time>2026-08-30T08:33:27.000Z</time>
      </trkpt>
      <trkpt lat="44.66178" lon="6.82116">
        <ele>2115</ele>
        <time>2026-08-30T08:34:25.000Z</time>
      </trkpt>
      <trkpt lat="44.66176" lon="6.82109">
        <ele>2118</ele>
        <time>2026-08-30T08:34:41.000Z</time>
      </trkpt>
      <trkpt lat="44.6616" lon="6.8212">
        <ele>2124</ele>
        <time>2026-08-30T08:35:16.000Z</time>
      </trkpt>
      <trkpt lat="44.6615" lon="6.82121">
        <ele>2128</ele>
        <time>2026-08-30T08:35:57.000Z</time>
      </trkpt>
      <trkpt lat="44.66113" lon="6.82153">
        <ele>2138</ele>
        <time>2026-08-30T08:37:48.000Z</time>
      </trkpt>
      <trkpt lat="44.66105" lon="6.82153">
        <ele>2140</ele>
        <time>2026-08-30T08:38:05.000Z</time>
      </trkpt>
      <trkpt lat="44.66111" lon="6.8214">
        <ele>2143</ele>
        <time>2026-08-30T08:38:48.000Z</time>
      </trkpt>
      <trkpt lat="44.66089" lon="6.82162">
        <ele>2143</ele>
        <time>2026-08-30T08:39:25.000Z</time>
      </trkpt>
      <trkpt lat="44.66048" lon="6.82172">
        <ele>2158</ele>
        <time>2026-08-30T08:40:22.000Z</time>
      </trkpt>
      <trkpt lat="44.66012" lon="6.82171">
        <ele>2169</ele>
        <time>2026-08-30T08:41:20.000Z</time>
      </trkpt>
      <trkpt lat="44.66008" lon="6.82184">
        <ele>2164</ele>
        <time>2026-08-30T08:41:58.000Z</time>
      </trkpt>
      <trkpt lat="44.66001" lon="6.82188">
        <ele>2164</ele>
        <time>2026-08-30T08:42:14.000Z</time>
      </trkpt>
      <trkpt lat="44.65977" lon="6.82186">
        <ele>2172</ele>
        <time>2026-08-30T08:43:06.000Z</time>
      </trkpt>
      <trkpt lat="44.65946" lon="6.82205">
        <ele>2169</ele>
        <time>2026-08-30T08:44:38.000Z</time>
      </trkpt>
      <trkpt lat="44.65939" lon="6.82217">
        <ele>2168</ele>
        <time>2026-08-30T08:45:16.000Z</time>
      </trkpt>
      <trkpt lat="44.65949" lon="6.82225">
        <ele>2166</ele>
        <time>2026-08-30T08:45:36.000Z</time>
      </trkpt>
      <trkpt lat="44.65938" lon="6.82245">
        <ele>2172</ele>
        <time>2026-08-30T08:46:10.000Z</time>
      </trkpt>
      <trkpt lat="44.65942" lon="6.82245">
        <ele>2170</ele>
        <time>2026-08-30T08:47:11.000Z</time>
      </trkpt>
      <trkpt lat="44.65944" lon="6.82256">
        <ele>2170</ele>
        <time>2026-08-30T08:47:49.000Z</time>
      </trkpt>
      <trkpt lat="44.65941" lon="6.82253">
        <ele>2170</ele>
        <time>2026-08-30T08:48:54.000Z</time>
      </trkpt>
      <trkpt lat="44.65945" lon="6.82252">
        <ele>2169</ele>
        <time>2026-08-30T08:50:23.000Z</time>
      </trkpt>
      <trkpt lat="44.65943" lon="6.82247">
        <ele>2169</ele>
        <time>2026-08-30T08:50:42.000Z</time>
      </trkpt>
      <trkpt lat="44.65948" lon="6.82253">
        <ele>2169</ele>
        <time>2026-08-30T08:52:41.000Z</time>
      </trkpt>
      <trkpt lat="44.65946" lon="6.82242">
        <ele>2168</ele>
        <time>2026-08-30T08:57:01.000Z</time>
      </trkpt>
      <trkpt lat="44.65943" lon="6.82256">
        <ele>2170</ele>
        <time>2026-08-30T08:57:39.000Z</time>
      </trkpt>
      <trkpt lat="44.65908" lon="6.82312">
        <ele>2185</ele>
        <time>2026-08-30T08:58:58.000Z</time>
      </trkpt>
      <trkpt lat="44.65917" lon="6.82313">
        <ele>2184</ele>
        <time>2026-08-30T09:00:36.000Z</time>
      </trkpt>
      <trkpt lat="44.65901" lon="6.82344">
        <ele>2189</ele>
        <time>2026-08-30T09:01:34.000Z</time>
      </trkpt>
      <trkpt lat="44.65909" lon="6.82376">
        <ele>2189</ele>
        <time>2026-08-30T09:02:12.000Z</time>
      </trkpt>
      <trkpt lat="44.65901" lon="6.82391">
        <ele>2192</ele>
        <time>2026-08-30T09:02:30.000Z</time>
      </trkpt>
      <trkpt lat="44.65892" lon="6.82397">
        <ele>2196</ele>
        <time>2026-08-30T09:02:46.000Z</time>
      </trkpt>
      <trkpt lat="44.65824" lon="6.82403">
        <ele>2218</ele>
        <time>2026-08-30T09:05:01.000Z</time>
      </trkpt>
      <trkpt lat="44.65819" lon="6.8241">
        <ele>2220</ele>
        <time>2026-08-30T09:05:18.000Z</time>
      </trkpt>
      <trkpt lat="44.65834" lon="6.82428">
        <ele>2220</ele>
        <time>2026-08-30T09:05:52.000Z</time>
      </trkpt>
      <trkpt lat="44.65836" lon="6.82444">
        <ele>2222</ele>
        <time>2026-08-30T09:06:09.000Z</time>
      </trkpt>
      <trkpt lat="44.65836" lon="6.82458">
        <ele>2225</ele>
        <time>2026-08-30T09:06:28.000Z</time>
      </trkpt>
      <trkpt lat="44.65829" lon="6.82458">
        <ele>2226</ele>
        <time>2026-08-30T09:06:46.000Z</time>
      </trkpt>
      <trkpt lat="44.65827" lon="6.82541">
        <ele>2238</ele>
        <time>2026-08-30T09:08:20.000Z</time>
      </trkpt>
      <trkpt lat="44.65823" lon="6.82556">
        <ele>2239</ele>
        <time>2026-08-30T09:08:39.000Z</time>
      </trkpt>
      <trkpt lat="44.65803" lon="6.82589">
        <ele>2247</ele>
        <time>2026-08-30T09:09:19.000Z</time>
      </trkpt>
      <trkpt lat="44.65771" lon="6.82632">
        <ele>2254</ele>
        <time>2026-08-30T09:10:13.000Z</time>
      </trkpt>
      <trkpt lat="44.65701" lon="6.82685">
        <ele>2252</ele>
        <time>2026-08-30T09:11:33.000Z</time>
      </trkpt>
      <trkpt lat="44.65669" lon="6.82714">
        <ele>2253</ele>
        <time>2026-08-30T09:12:22.000Z</time>
      </trkpt>
      <trkpt lat="44.65662" lon="6.82734">
        <ele>2252</ele>
        <time>2026-08-30T09:12:37.000Z</time>
      </trkpt>
      <trkpt lat="44.65663" lon="6.8275">
        <ele>2250</ele>
        <time>2026-08-30T09:12:48.000Z</time>
      </trkpt>
      <trkpt lat="44.65675" lon="6.82786">
        <ele>2249</ele>
        <time>2026-08-30T09:13:20.000Z</time>
      </trkpt>
      <trkpt lat="44.65661" lon="6.82818">
        <ele>2256</ele>
        <time>2026-08-30T09:13:51.000Z</time>
      </trkpt>
      <trkpt lat="44.65677" lon="6.82867">
        <ele>2253</ele>
        <time>2026-08-30T09:14:39.000Z</time>
      </trkpt>
      <trkpt lat="44.65653" lon="6.82989">
        <ele>2261</ele>
        <time>2026-08-30T09:16:13.000Z</time>
      </trkpt>
      <trkpt lat="44.65656" lon="6.83027">
        <ele>2254</ele>
        <time>2026-08-30T09:16:44.000Z</time>
      </trkpt>
      <trkpt lat="44.65633" lon="6.83073">
        <ele>2256</ele>
        <time>2026-08-30T09:17:42.000Z</time>
      </trkpt>
      <trkpt lat="44.65612" lon="6.83105">
        <ele>2260</ele>
        <time>2026-08-30T09:18:17.000Z</time>
      </trkpt>
      <trkpt lat="44.65593" lon="6.83126">
        <ele>2260</ele>
        <time>2026-08-30T09:18:40.000Z</time>
      </trkpt>
      <trkpt lat="44.65543" lon="6.83149">
        <ele>2271</ele>
        <time>2026-08-30T09:20:19.000Z</time>
      </trkpt>
      <trkpt lat="44.65531" lon="6.83148">
        <ele>2276</ele>
        <time>2026-08-30T09:20:34.000Z</time>
      </trkpt>
      <trkpt lat="44.65491" lon="6.83176">
        <ele>2281</ele>
        <time>2026-08-30T09:22:09.000Z</time>
      </trkpt>
      <trkpt lat="44.65471" lon="6.83183">
        <ele>2288</ele>
        <time>2026-08-30T09:22:44.000Z</time>
      </trkpt>
      <trkpt lat="44.6542" lon="6.83193">
        <ele>2299</ele>
        <time>2026-08-30T09:23:48.000Z</time>
      </trkpt>
      <trkpt lat="44.65367" lon="6.83221">
        <ele>2307</ele>
        <time>2026-08-30T09:25:03.000Z</time>
      </trkpt>
      <trkpt lat="44.65356" lon="6.83221">
        <ele>2310</ele>
        <time>2026-08-30T09:25:18.000Z</time>
      </trkpt>
      <trkpt lat="44.65312" lon="6.83248">
        <ele>2318</ele>
        <time>2026-08-30T09:26:25.000Z</time>
      </trkpt>
      <trkpt lat="44.65292" lon="6.83239">
        <ele>2323</ele>
        <time>2026-08-30T09:26:54.000Z</time>
      </trkpt>
      <trkpt lat="44.65239" lon="6.8324">
        <ele>2335</ele>
        <time>2026-08-30T09:28:40.000Z</time>
      </trkpt>
      <trkpt lat="44.65215" lon="6.83259">
        <ele>2339</ele>
        <time>2026-08-30T09:30:12.000Z</time>
      </trkpt>
      <trkpt lat="44.65216" lon="6.83266">
        <ele>2338</ele>
        <time>2026-08-30T09:31:02.000Z</time>
      </trkpt>
      <trkpt lat="44.65219" lon="6.83263">
        <ele>2337</ele>
        <time>2026-08-30T09:32:02.000Z</time>
      </trkpt>
      <trkpt lat="44.65214" lon="6.83261">
        <ele>2339</ele>
        <time>2026-08-30T09:38:12.000Z</time>
      </trkpt>
      <trkpt lat="44.65179" lon="6.83264">
        <ele>2346</ele>
        <time>2026-08-30T09:39:47.000Z</time>
      </trkpt>
      <trkpt lat="44.65184" lon="6.8327">
        <ele>2345</ele>
        <time>2026-08-30T09:40:53.000Z</time>
      </trkpt>
      <trkpt lat="44.65146" lon="6.8327">
        <ele>2353</ele>
        <time>2026-08-30T09:45:01.000Z</time>
      </trkpt>
      <trkpt lat="44.65135" lon="6.83277">
        <ele>2356</ele>
        <time>2026-08-30T09:45:19.000Z</time>
      </trkpt>
      <trkpt lat="44.65117" lon="6.83299">
        <ele>2359</ele>
        <time>2026-08-30T09:45:51.000Z</time>
      </trkpt>
      <trkpt lat="44.65043" lon="6.83334">
        <ele>2375</ele>
        <time>2026-08-30T09:47:50.000Z</time>
      </trkpt>
      <trkpt lat="44.65016" lon="6.83355">
        <ele>2382</ele>
        <time>2026-08-30T09:48:39.000Z</time>
      </trkpt>
      <trkpt lat="44.65008" lon="6.83356">
        <ele>2385</ele>
        <time>2026-08-30T09:49:16.000Z</time>
      </trkpt>
      <trkpt lat="44.64997" lon="6.83383">
        <ele>2389</ele>
        <time>2026-08-30T09:49:45.000Z</time>
      </trkpt>
      <trkpt lat="44.64981" lon="6.834">
        <ele>2394</ele>
        <time>2026-08-30T09:50:17.000Z</time>
      </trkpt>
      <trkpt lat="44.6498" lon="6.83409">
        <ele>2395</ele>
        <time>2026-08-30T09:50:33.000Z</time>
      </trkpt>
      <trkpt lat="44.64955" lon="6.83422">
        <ele>2401</ele>
        <time>2026-08-30T09:51:21.000Z</time>
      </trkpt>
      <trkpt lat="44.64922" lon="6.8347">
        <ele>2412</ele>
        <time>2026-08-30T09:52:54.000Z</time>
      </trkpt>
      <trkpt lat="44.64895" lon="6.83483">
        <ele>2424</ele>
        <time>2026-08-30T09:54:07.000Z</time>
      </trkpt>
      <trkpt lat="44.64889" lon="6.83499">
        <ele>2434</ele>
        <time>2026-08-30T09:55:10.000Z</time>
      </trkpt>
      <trkpt lat="44.64864" lon="6.83485">
        <ele>2435</ele>
        <time>2026-08-30T09:56:11.000Z</time>
      </trkpt>
      <trkpt lat="44.64857" lon="6.83493">
        <ele>2437</ele>
        <time>2026-08-30T09:56:38.000Z</time>
      </trkpt>
      <trkpt lat="44.64853" lon="6.83489">
        <ele>2437</ele>
        <time>2026-08-30T09:57:12.000Z</time>
      </trkpt>
      <trkpt lat="44.64852" lon="6.83503">
        <ele>2440</ele>
        <time>2026-08-30T09:58:16.000Z</time>
      </trkpt>
      <trkpt lat="44.64841" lon="6.83514">
        <ele>2445</ele>
        <time>2026-08-30T09:58:43.000Z</time>
      </trkpt>
      <trkpt lat="44.64834" lon="6.83536">
        <ele>2454</ele>
        <time>2026-08-30T09:59:22.000Z</time>
      </trkpt>
      <trkpt lat="44.64828" lon="6.83539">
        <ele>2454</ele>
        <time>2026-08-30T09:59:34.000Z</time>
      </trkpt>
      <trkpt lat="44.6483" lon="6.83544">
        <ele>2456</ele>
        <time>2026-08-30T09:59:50.000Z</time>
      </trkpt>
      <trkpt lat="44.64804" lon="6.83589">
        <ele>2471</ele>
        <time>2026-08-30T10:01:50.000Z</time>
      </trkpt>
      <trkpt lat="44.648" lon="6.83589">
        <ele>2472</ele>
        <time>2026-08-30T10:02:29.000Z</time>
      </trkpt>
      <trkpt lat="44.64805" lon="6.8359">
        <ele>2471</ele>
        <time>2026-08-30T10:02:45.000Z</time>
      </trkpt>
      <trkpt lat="44.64789" lon="6.83621">
        <ele>2482</ele>
        <time>2026-08-30T10:04:09.000Z</time>
      </trkpt>
      <trkpt lat="44.64782" lon="6.83626">
        <ele>2484</ele>
        <time>2026-08-30T10:04:25.000Z</time>
      </trkpt>
      <trkpt lat="44.64779" lon="6.83645">
        <ele>2489</ele>
        <time>2026-08-30T10:05:01.000Z</time>
      </trkpt>
      <trkpt lat="44.64784" lon="6.83653">
        <ele>2492</ele>
        <time>2026-08-30T10:05:16.000Z</time>
      </trkpt>
      <trkpt lat="44.6477" lon="6.83652">
        <ele>2493</ele>
        <time>2026-08-30T10:06:00.000Z</time>
      </trkpt>
      <trkpt lat="44.64767" lon="6.83646">
        <ele>2492</ele>
        <time>2026-08-30T10:06:24.000Z</time>
      </trkpt>
      <trkpt lat="44.64743" lon="6.83675">
        <ele>2506</ele>
        <time>2026-08-30T10:07:08.000Z</time>
      </trkpt>
      <trkpt lat="44.64732" lon="6.83678">
        <ele>2513</ele>
        <time>2026-08-30T10:07:23.000Z</time>
      </trkpt>
      <trkpt lat="44.64744" lon="6.83678">
        <ele>2506</ele>
        <time>2026-08-30T10:07:39.000Z</time>
      </trkpt>
      <trkpt lat="44.64744" lon="6.83686">
        <ele>2510</ele>
        <time>2026-08-30T10:07:59.000Z</time>
      </trkpt>
      <trkpt lat="44.64731" lon="6.83695">
        <ele>2517</ele>
        <time>2026-08-30T10:08:50.000Z</time>
      </trkpt>
      <trkpt lat="44.64718" lon="6.83693">
        <ele>2522</ele>
        <time>2026-08-30T10:09:40.000Z</time>
      </trkpt>
      <trkpt lat="44.647" lon="6.83703">
        <ele>2533</ele>
        <time>2026-08-30T10:11:08.000Z</time>
      </trkpt>
      <trkpt lat="44.6469" lon="6.83696">
        <ele>2539</ele>
        <time>2026-08-30T10:12:11.000Z</time>
      </trkpt>
      <trkpt lat="44.64696" lon="6.837">
        <ele>2535</ele>
        <time>2026-08-30T10:13:09.000Z</time>
      </trkpt>
      <trkpt lat="44.64686" lon="6.8372">
        <ele>2548</ele>
        <time>2026-08-30T10:14:18.000Z</time>
      </trkpt>
      <trkpt lat="44.64669" lon="6.83729">
        <ele>2556</ele>
        <time>2026-08-30T10:15:40.000Z</time>
      </trkpt>
      <trkpt lat="44.64653" lon="6.83744">
        <ele>2567</ele>
        <time>2026-08-30T10:17:51.000Z</time>
      </trkpt>
      <trkpt lat="44.64648" lon="6.83757">
        <ele>2572</ele>
        <time>2026-08-30T10:18:24.000Z</time>
      </trkpt>
      <trkpt lat="44.64635" lon="6.83757">
        <ele>2577</ele>
        <time>2026-08-30T10:19:40.000Z</time>
      </trkpt>
      <trkpt lat="44.64634" lon="6.83765">
        <ele>2579</ele>
        <time>2026-08-30T10:19:55.000Z</time>
      </trkpt>
      <trkpt lat="44.64617" lon="6.83759">
        <ele>2585</ele>
        <time>2026-08-30T10:20:39.000Z</time>
      </trkpt>
      <trkpt lat="44.64617" lon="6.83769">
        <ele>2586</ele>
        <time>2026-08-30T10:21:27.000Z</time>
      </trkpt>
      <trkpt lat="44.64605" lon="6.83782">
        <ele>2593</ele>
        <time>2026-08-30T10:22:47.000Z</time>
      </trkpt>
      <trkpt lat="44.64607" lon="6.8379">
        <ele>2594</ele>
        <time>2026-08-30T10:23:02.000Z</time>
      </trkpt>
      <trkpt lat="44.64604" lon="6.838">
        <ele>2597</ele>
        <time>2026-08-30T10:23:21.000Z</time>
      </trkpt>
      <trkpt lat="44.64583" lon="6.83843">
        <ele>2606</ele>
        <time>2026-08-30T10:25:12.000Z</time>
      </trkpt>
      <trkpt lat="44.64587" lon="6.83848">
        <ele>2607</ele>
        <time>2026-08-30T10:25:45.000Z</time>
      </trkpt>
      <trkpt lat="44.64582" lon="6.83843">
        <ele>2606</ele>
        <time>2026-08-30T10:27:17.000Z</time>
      </trkpt>
      <trkpt lat="44.64586" lon="6.83847">
        <ele>2607</ele>
        <time>2026-08-30T10:28:15.000Z</time>
      </trkpt>
      <trkpt lat="44.64578" lon="6.83847">
        <ele>2606</ele>
        <time>2026-08-30T10:30:19.000Z</time>
      </trkpt>
      <trkpt lat="44.64612" lon="6.83851">
        <ele>2607</ele>
        <time>2026-08-30T10:32:08.000Z</time>
      </trkpt>
      <trkpt lat="44.64639" lon="6.83843">
        <ele>2608</ele>
        <time>2026-08-30T10:33:22.000Z</time>
      </trkpt>
      <trkpt lat="44.64636" lon="6.83849">
        <ele>2609</ele>
        <time>2026-08-30T10:33:39.000Z</time>
      </trkpt>
      <trkpt lat="44.6464" lon="6.83858">
        <ele>2610</ele>
        <time>2026-08-30T10:34:56.000Z</time>
      </trkpt>
      <trkpt lat="44.64659" lon="6.83901">
        <ele>2619</ele>
        <time>2026-08-30T10:37:10.000Z</time>
      </trkpt>
      <trkpt lat="44.64678" lon="6.8393">
        <ele>2623</ele>
        <time>2026-08-30T10:38:23.000Z</time>
      </trkpt>
      <trkpt lat="44.64724" lon="6.83964">
        <ele>2628</ele>
        <time>2026-08-30T10:40:14.000Z</time>
      </trkpt>
      <trkpt lat="44.64741" lon="6.8401">
        <ele>2646</ele>
        <time>2026-08-30T10:44:02.000Z</time>
      </trkpt>
      <trkpt lat="44.64751" lon="6.84078">
        <ele>2673</ele>
        <time>2026-08-30T10:49:37.000Z</time>
      </trkpt>
      <trkpt lat="44.64758" lon="6.84128">
        <ele>2684</ele>
        <time>2026-08-30T10:52:12.000Z</time>
      </trkpt>
      <trkpt lat="44.64757" lon="6.84185">
        <ele>2714</ele>
        <time>2026-08-30T10:58:06.000Z</time>
      </trkpt>
      <trkpt lat="44.64723" lon="6.84214">
        <ele>2729</ele>
        <time>2026-08-30T11:01:26.000Z</time>
      </trkpt>
      <trkpt lat="44.64694" lon="6.84232">
        <ele>2732</ele>
        <time>2026-08-30T11:02:33.000Z</time>
      </trkpt>
      <trkpt lat="44.64664" lon="6.84269">
        <ele>2742</ele>
        <time>2026-08-30T11:05:02.000Z</time>
      </trkpt>
      <trkpt lat="44.64638" lon="6.84292">
        <ele>2749</ele>
        <time>2026-08-30T11:06:49.000Z</time>
      </trkpt>
      <trkpt lat="44.64617" lon="6.84314">
        <ele>2760</ele>
        <time>2026-08-30T11:09:12.000Z</time>
      </trkpt>
      <trkpt lat="44.64586" lon="6.84327">
        <ele>2762</ele>
        <time>2026-08-30T11:10:10.000Z</time>
      </trkpt>
      <trkpt lat="44.64545" lon="6.84353">
        <ele>2763</ele>
        <time>2026-08-30T11:11:12.000Z</time>
      </trkpt>
      <trkpt lat="44.64513" lon="6.84387">
        <ele>2771</ele>
        <time>2026-08-30T11:13:20.000Z</time>
      </trkpt>
      <trkpt lat="44.6453" lon="6.84357">
        <ele>2763</ele>
        <time>2026-08-30T11:13:51.000Z</time>
      </trkpt>
      <trkpt lat="44.64564" lon="6.84332">
        <ele>2760</ele>
        <time>2026-08-30T11:14:35.000Z</time>
      </trkpt>
      <trkpt lat="44.64602" lon="6.84314">
        <ele>2758</ele>
        <time>2026-08-30T11:15:21.000Z</time>
      </trkpt>
      <trkpt lat="44.64626" lon="6.84301">
        <ele>2753</ele>
        <time>2026-08-30T11:15:50.000Z</time>
      </trkpt>
      <trkpt lat="44.64654" lon="6.84275">
        <ele>2744</ele>
        <time>2026-08-30T11:16:28.000Z</time>
      </trkpt>
      <trkpt lat="44.64677" lon="6.84249">
        <ele>2737</ele>
        <time>2026-08-30T11:17:01.000Z</time>
      </trkpt>
      <trkpt lat="44.64687" lon="6.84215">
        <ele>2723</ele>
        <time>2026-08-30T11:17:31.000Z</time>
      </trkpt>
      <trkpt lat="44.64667" lon="6.84187">
        <ele>2707</ele>
        <time>2026-08-30T11:18:03.000Z</time>
      </trkpt>
      <trkpt lat="44.64645" lon="6.8416">
        <ele>2688</ele>
        <time>2026-08-30T11:18:37.000Z</time>
      </trkpt>
      <trkpt lat="44.64627" lon="6.84141">
        <ele>2677</ele>
        <time>2026-08-30T11:19:02.000Z</time>
      </trkpt>
      <trkpt lat="44.6461" lon="6.84124">
        <ele>2672</ele>
        <time>2026-08-30T11:19:27.000Z</time>
      </trkpt>
      <trkpt lat="44.6461" lon="6.84092">
        <ele>2669</ele>
        <time>2026-08-30T11:19:53.000Z</time>
      </trkpt>
      <trkpt lat="44.6459" lon="6.84015">
        <ele>2649</ele>
        <time>2026-08-30T11:21:00.000Z</time>
      </trkpt>
      <trkpt lat="44.64571" lon="6.8397">
        <ele>2629</ele>
        <time>2026-08-30T11:21:43.000Z</time>
      </trkpt>
      <trkpt lat="44.64552" lon="6.83928">
        <ele>2608</ele>
        <time>2026-08-30T11:22:24.000Z</time>
      </trkpt>
      <trkpt lat="44.64541" lon="6.83912">
        <ele>2600</ele>
        <time>2026-08-30T11:22:42.000Z</time>
      </trkpt>
      <trkpt lat="44.64532" lon="6.8391">
        <ele>2596</ele>
        <time>2026-08-30T11:22:53.000Z</time>
      </trkpt>
      <trkpt lat="44.64529" lon="6.83922">
        <ele>2596</ele>
        <time>2026-08-30T11:23:03.000Z</time>
      </trkpt>
      <trkpt lat="44.64508" lon="6.8395">
        <ele>2591</ele>
        <time>2026-08-30T11:23:36.000Z</time>
      </trkpt>
      <trkpt lat="44.64475" lon="6.83963">
        <ele>2582</ele>
        <time>2026-08-30T11:24:16.000Z</time>
      </trkpt>
      <trkpt lat="44.64436" lon="6.83993">
        <ele>2566</ele>
        <time>2026-08-30T11:57:34.000Z</time>
      </trkpt>
      <trkpt lat="44.64421" lon="6.83982">
        <ele>2557</ele>
        <time>2026-08-30T11:58:00.000Z</time>
      </trkpt>
      <trkpt lat="44.64409" lon="6.83985">
        <ele>2552</ele>
        <time>2026-08-30T11:58:23.000Z</time>
      </trkpt>
      <trkpt lat="44.64398" lon="6.83969">
        <ele>2547</ele>
        <time>2026-08-30T11:58:47.000Z</time>
      </trkpt>
      <trkpt lat="44.64372" lon="6.83971">
        <ele>2539</ele>
        <time>2026-08-30T11:59:55.000Z</time>
      </trkpt>
      <trkpt lat="44.64334" lon="6.83956">
        <ele>2527</ele>
        <time>2026-08-30T12:00:48.000Z</time>
      </trkpt>
      <trkpt lat="44.64314" lon="6.8396">
        <ele>2520</ele>
        <time>2026-08-30T12:01:17.000Z</time>
      </trkpt>
      <trkpt lat="44.64283" lon="6.83948">
        <ele>2507</ele>
        <time>2026-08-30T12:02:54.000Z</time>
      </trkpt>
      <trkpt lat="44.64283" lon="6.83955">
        <ele>2508</ele>
        <time>2026-08-30T12:03:35.000Z</time>
      </trkpt>
      <trkpt lat="44.64273" lon="6.83964">
        <ele>2506</ele>
        <time>2026-08-30T12:03:49.000Z</time>
      </trkpt>
      <trkpt lat="44.64255" lon="6.83971">
        <ele>2502</ele>
        <time>2026-08-30T12:04:06.000Z</time>
      </trkpt>
      <trkpt lat="44.64231" lon="6.83969">
        <ele>2497</ele>
        <time>2026-08-30T12:04:37.000Z</time>
      </trkpt>
      <trkpt lat="44.6422" lon="6.83988">
        <ele>2497</ele>
        <time>2026-08-30T12:05:21.000Z</time>
      </trkpt>
      <trkpt lat="44.6418" lon="6.83969">
        <ele>2496</ele>
        <time>2026-08-30T12:06:03.000Z</time>
      </trkpt>
      <trkpt lat="44.64164" lon="6.83963">
        <ele>2493</ele>
        <time>2026-08-30T12:06:21.000Z</time>
      </trkpt>
      <trkpt lat="44.6415" lon="6.83962">
        <ele>2490</ele>
        <time>2026-08-30T12:08:33.000Z</time>
      </trkpt>
      <trkpt lat="44.64137" lon="6.83968">
        <ele>2489</ele>
        <time>2026-08-30T12:09:34.000Z</time>
      </trkpt>
      <trkpt lat="44.64092" lon="6.8397">
        <ele>2480</ele>
        <time>2026-08-30T12:10:19.000Z</time>
      </trkpt>
      <trkpt lat="44.64065" lon="6.83956">
        <ele>2474</ele>
        <time>2026-08-30T12:10:47.000Z</time>
      </trkpt>
      <trkpt lat="44.64031" lon="6.83954">
        <ele>2469</ele>
        <time>2026-08-30T12:11:42.000Z</time>
      </trkpt>
      <trkpt lat="44.64015" lon="6.8395">
        <ele>2462</ele>
        <time>2026-08-30T12:12:21.000Z</time>
      </trkpt>
      <trkpt lat="44.63985" lon="6.83924">
        <ele>2445</ele>
        <time>2026-08-30T12:13:56.000Z</time>
      </trkpt>
      <trkpt lat="44.63978" lon="6.83932">
        <ele>2442</ele>
        <time>2026-08-30T12:14:12.000Z</time>
      </trkpt>
      <trkpt lat="44.6395" lon="6.83913">
        <ele>2430</ele>
        <time>2026-08-30T12:15:04.000Z</time>
      </trkpt>
      <trkpt lat="44.63933" lon="6.83877">
        <ele>2420</ele>
        <time>2026-08-30T12:15:49.000Z</time>
      </trkpt>
      <trkpt lat="44.63921" lon="6.83864">
        <ele>2415</ele>
        <time>2026-08-30T12:16:18.000Z</time>
      </trkpt>
      <trkpt lat="44.6391" lon="6.83865">
        <ele>2411</ele>
        <time>2026-08-30T12:17:15.000Z</time>
      </trkpt>
      <trkpt lat="44.63891" lon="6.83841">
        <ele>2403</ele>
        <time>2026-08-30T12:18:03.000Z</time>
      </trkpt>
      <trkpt lat="44.63871" lon="6.83793">
        <ele>2390</ele>
        <time>2026-08-30T12:19:05.000Z</time>
      </trkpt>
      <trkpt lat="44.63865" lon="6.83746">
        <ele>2376</ele>
        <time>2026-08-30T12:20:04.000Z</time>
      </trkpt>
      <trkpt lat="44.63855" lon="6.83713">
        <ele>2368</ele>
        <time>2026-08-30T12:20:44.000Z</time>
      </trkpt>
      <trkpt lat="44.63857" lon="6.83709">
        <ele>2368</ele>
        <time>2026-08-30T12:20:59.000Z</time>
      </trkpt>
      <trkpt lat="44.63854" lon="6.83691">
        <ele>2364</ele>
        <time>2026-08-30T12:21:28.000Z</time>
      </trkpt>
      <trkpt lat="44.6383" lon="6.83642">
        <ele>2350</ele>
        <time>2026-08-30T12:22:46.000Z</time>
      </trkpt>
      <trkpt lat="44.63834" lon="6.83618">
        <ele>2344</ele>
        <time>2026-08-30T12:23:13.000Z</time>
      </trkpt>
      <trkpt lat="44.63814" lon="6.83616">
        <ele>2336</ele>
        <time>2026-08-30T12:24:08.000Z</time>
      </trkpt>
      <trkpt lat="44.638" lon="6.83608">
        <ele>2333</ele>
        <time>2026-08-30T12:24:37.000Z</time>
      </trkpt>
      <trkpt lat="44.63747" lon="6.83522">
        <ele>2325</ele>
        <time>2026-08-30T12:26:40.000Z</time>
      </trkpt>
      <trkpt lat="44.63743" lon="6.83469">
        <ele>2311</ele>
        <time>2026-08-30T12:27:33.000Z</time>
      </trkpt>
      <trkpt lat="44.6373" lon="6.83457">
        <ele>2303</ele>
        <time>2026-08-30T12:28:01.000Z</time>
      </trkpt>
      <trkpt lat="44.63719" lon="6.83455">
        <ele>2302</ele>
        <time>2026-08-30T12:28:33.000Z</time>
      </trkpt>
      <trkpt lat="44.63727" lon="6.83438">
        <ele>2296</ele>
        <time>2026-08-30T12:29:01.000Z</time>
      </trkpt>
      <trkpt lat="44.63723" lon="6.83437">
        <ele>2295</ele>
        <time>2026-08-30T12:29:47.000Z</time>
      </trkpt>
      <trkpt lat="44.63728" lon="6.83432">
        <ele>2294</ele>
        <time>2026-08-30T12:30:55.000Z</time>
      </trkpt>
      <trkpt lat="44.63724" lon="6.83434">
        <ele>2294</ele>
        <time>2026-08-30T12:33:23.000Z</time>
      </trkpt>
      <trkpt lat="44.63724" lon="6.83429">
        <ele>2292</ele>
        <time>2026-08-30T12:34:16.000Z</time>
      </trkpt>
      <trkpt lat="44.63726" lon="6.83426">
        <ele>2291</ele>
        <time>2026-08-30T12:35:00.000Z</time>
      </trkpt>
      <trkpt lat="44.63725" lon="6.83433">
        <ele>2294</ele>
        <time>2026-08-30T12:36:16.000Z</time>
      </trkpt>
      <trkpt lat="44.63729" lon="6.83432">
        <ele>2294</ele>
        <time>2026-08-30T12:36:59.000Z</time>
      </trkpt>
      <trkpt lat="44.63765" lon="6.83381">
        <ele>2283</ele>
        <time>2026-08-30T12:38:06.000Z</time>
      </trkpt>
      <trkpt lat="44.63778" lon="6.8334">
        <ele>2272</ele>
        <time>2026-08-30T12:38:57.000Z</time>
      </trkpt>
      <trkpt lat="44.63788" lon="6.83335">
        <ele>2273</ele>
        <time>2026-08-30T12:39:13.000Z</time>
      </trkpt>
      <trkpt lat="44.63803" lon="6.83306">
        <ele>2267</ele>
        <time>2026-08-30T12:39:55.000Z</time>
      </trkpt>
      <trkpt lat="44.63815" lon="6.83268">
        <ele>2257</ele>
        <time>2026-08-30T12:40:21.000Z</time>
      </trkpt>
      <trkpt lat="44.63826" lon="6.83267">
        <ele>2259</ele>
        <time>2026-08-30T12:40:38.000Z</time>
      </trkpt>
      <trkpt lat="44.63851" lon="6.8323">
        <ele>2254</ele>
        <time>2026-08-30T12:41:17.000Z</time>
      </trkpt>
      <trkpt lat="44.63853" lon="6.83212">
        <ele>2248</ele>
        <time>2026-08-30T12:41:32.000Z</time>
      </trkpt>
      <trkpt lat="44.6385" lon="6.83207">
        <ele>2246</ele>
        <time>2026-08-30T12:41:38.000Z</time>
      </trkpt>
      <trkpt lat="44.63848" lon="6.83168">
        <ele>2235</ele>
        <time>2026-08-30T12:42:17.000Z</time>
      </trkpt>
      <trkpt lat="44.63875" lon="6.83167">
        <ele>2237</ele>
        <time>2026-08-30T12:42:44.000Z</time>
      </trkpt>
      <trkpt lat="44.63881" lon="6.83149">
        <ele>2235</ele>
        <time>2026-08-30T12:43:00.000Z</time>
      </trkpt>
      <trkpt lat="44.63876" lon="6.83129">
        <ele>2231</ele>
        <time>2026-08-30T12:43:16.000Z</time>
      </trkpt>
      <trkpt lat="44.63876" lon="6.83106">
        <ele>2225</ele>
        <time>2026-08-30T12:43:33.000Z</time>
      </trkpt>
      <trkpt lat="44.63882" lon="6.83076">
        <ele>2220</ele>
        <time>2026-08-30T12:44:01.000Z</time>
      </trkpt>
      <trkpt lat="44.63878" lon="6.8307">
        <ele>2216</ele>
        <time>2026-08-30T12:44:12.000Z</time>
      </trkpt>
      <trkpt lat="44.63868" lon="6.83077">
        <ele>2215</ele>
        <time>2026-08-30T12:44:24.000Z</time>
      </trkpt>
      <trkpt lat="44.63872" lon="6.83052">
        <ele>2208</ele>
        <time>2026-08-30T12:44:54.000Z</time>
      </trkpt>
      <trkpt lat="44.63863" lon="6.83047">
        <ele>2206</ele>
        <time>2026-08-30T12:45:09.000Z</time>
      </trkpt>
      <trkpt lat="44.63873" lon="6.83017">
        <ele>2200</ele>
        <time>2026-08-30T12:45:35.000Z</time>
      </trkpt>
      <trkpt lat="44.63885" lon="6.83004">
        <ele>2198</ele>
        <time>2026-08-30T12:45:50.000Z</time>
      </trkpt>
      <trkpt lat="44.63887" lon="6.82996">
        <ele>2196</ele>
        <time>2026-08-30T12:46:03.000Z</time>
      </trkpt>
      <trkpt lat="44.63883" lon="6.82991">
        <ele>2195</ele>
        <time>2026-08-30T12:46:14.000Z</time>
      </trkpt>
      <trkpt lat="44.63905" lon="6.82936">
        <ele>2185</ele>
        <time>2026-08-30T12:47:03.000Z</time>
      </trkpt>
      <trkpt lat="44.63898" lon="6.82928">
        <ele>2184</ele>
        <time>2026-08-30T12:47:16.000Z</time>
      </trkpt>
      <trkpt lat="44.63905" lon="6.82912">
        <ele>2180</ele>
        <time>2026-08-30T12:47:28.000Z</time>
      </trkpt>
      <trkpt lat="44.639" lon="6.82904">
        <ele>2179</ele>
        <time>2026-08-30T12:48:06.000Z</time>
      </trkpt>
      <trkpt lat="44.6391" lon="6.82894">
        <ele>2177</ele>
        <time>2026-08-30T12:48:15.000Z</time>
      </trkpt>
      <trkpt lat="44.63923" lon="6.82831">
        <ele>2171</ele>
        <time>2026-08-30T12:49:03.000Z</time>
      </trkpt>
      <trkpt lat="44.63919" lon="6.82818">
        <ele>2167</ele>
        <time>2026-08-30T12:49:13.000Z</time>
      </trkpt>
      <trkpt lat="44.63924" lon="6.82796">
        <ele>2164</ele>
        <time>2026-08-30T12:49:26.000Z</time>
      </trkpt>
      <trkpt lat="44.63917" lon="6.82781">
        <ele>2158</ele>
        <time>2026-08-30T12:49:39.000Z</time>
      </trkpt>
      <trkpt lat="44.63923" lon="6.82759">
        <ele>2158</ele>
        <time>2026-08-30T12:49:54.000Z</time>
      </trkpt>
      <trkpt lat="44.63922" lon="6.82721">
        <ele>2151</ele>
        <time>2026-08-30T12:50:24.000Z</time>
      </trkpt>
      <trkpt lat="44.63914" lon="6.82707">
        <ele>2144</ele>
        <time>2026-08-30T12:50:38.000Z</time>
      </trkpt>
      <trkpt lat="44.63914" lon="6.82688">
        <ele>2142</ele>
        <time>2026-08-30T12:50:50.000Z</time>
      </trkpt>
      <trkpt lat="44.639" lon="6.82641">
        <ele>2134</ele>
        <time>2026-08-30T12:51:37.000Z</time>
      </trkpt>
      <trkpt lat="44.63899" lon="6.82623">
        <ele>2133</ele>
        <time>2026-08-30T12:51:52.000Z</time>
      </trkpt>
      <trkpt lat="44.63884" lon="6.82597">
        <ele>2123</ele>
        <time>2026-08-30T12:52:20.000Z</time>
      </trkpt>
      <trkpt lat="44.63881" lon="6.82536">
        <ele>2115</ele>
        <time>2026-08-30T12:53:15.000Z</time>
      </trkpt>
      <trkpt lat="44.63868" lon="6.82523">
        <ele>2105</ele>
        <time>2026-08-30T12:53:43.000Z</time>
      </trkpt>
      <trkpt lat="44.63875" lon="6.82494">
        <ele>2101</ele>
        <time>2026-08-30T12:54:53.000Z</time>
      </trkpt>
      <trkpt lat="44.63874" lon="6.82434">
        <ele>2093</ele>
        <time>2026-08-30T12:55:51.000Z</time>
      </trkpt>
      <trkpt lat="44.6388" lon="6.82414">
        <ele>2087</ele>
        <time>2026-08-30T12:56:27.000Z</time>
      </trkpt>
      <trkpt lat="44.63874" lon="6.82362">
        <ele>2081</ele>
        <time>2026-08-30T12:57:34.000Z</time>
      </trkpt>
      <trkpt lat="44.63883" lon="6.82352">
        <ele>2077</ele>
        <time>2026-08-30T12:57:48.000Z</time>
      </trkpt>
      <trkpt lat="44.63892" lon="6.82328">
        <ele>2080</ele>
        <time>2026-08-30T12:58:05.000Z</time>
      </trkpt>
      <trkpt lat="44.63882" lon="6.82229">
        <ele>2062</ele>
        <time>2026-08-30T12:59:19.000Z</time>
      </trkpt>
      <trkpt lat="44.63875" lon="6.82205">
        <ele>2057</ele>
        <time>2026-08-30T12:59:36.000Z</time>
      </trkpt>
      <trkpt lat="44.63859" lon="6.82178">
        <ele>2047</ele>
        <time>2026-08-30T13:00:05.000Z</time>
      </trkpt>
      <trkpt lat="44.6386" lon="6.82152">
        <ele>2044</ele>
        <time>2026-08-30T13:00:23.000Z</time>
      </trkpt>
      <trkpt lat="44.63866" lon="6.82121">
        <ele>2042</ele>
        <time>2026-08-30T13:00:43.000Z</time>
      </trkpt>
      <trkpt lat="44.6388" lon="6.82109">
        <ele>2045</ele>
        <time>2026-08-30T13:01:00.000Z</time>
      </trkpt>
      <trkpt lat="44.63895" lon="6.82106">
        <ele>2051</ele>
        <time>2026-08-30T13:01:14.000Z</time>
      </trkpt>
      <trkpt lat="44.63899" lon="6.82091">
        <ele>2050</ele>
        <time>2026-08-30T13:01:29.000Z</time>
      </trkpt>
      <trkpt lat="44.6389" lon="6.82025">
        <ele>2033</ele>
        <time>2026-08-30T13:02:16.000Z</time>
      </trkpt>
      <trkpt lat="44.63883" lon="6.82023">
        <ele>2030</ele>
        <time>2026-08-30T13:02:30.000Z</time>
      </trkpt>
      <trkpt lat="44.63872" lon="6.82049">
        <ele>2029</ele>
        <time>2026-08-30T13:02:51.000Z</time>
      </trkpt>
      <trkpt lat="44.63861" lon="6.82052">
        <ele>2025</ele>
        <time>2026-08-30T13:03:07.000Z</time>
      </trkpt>
      <trkpt lat="44.63855" lon="6.82045">
        <ele>2022</ele>
        <time>2026-08-30T13:03:31.000Z</time>
      </trkpt>
      <trkpt lat="44.6384" lon="6.82059">
        <ele>2018</ele>
        <time>2026-08-30T13:04:01.000Z</time>
      </trkpt>
      <trkpt lat="44.63837" lon="6.82052">
        <ele>2016</ele>
        <time>2026-08-30T13:04:12.000Z</time>
      </trkpt>
      <trkpt lat="44.63846" lon="6.82002">
        <ele>2010</ele>
        <time>2026-08-30T13:04:57.000Z</time>
      </trkpt>
      <trkpt lat="44.63844" lon="6.81967">
        <ele>2005</ele>
        <time>2026-08-30T13:05:27.000Z</time>
      </trkpt>
      <trkpt lat="44.63836" lon="6.81939">
        <ele>1997</ele>
        <time>2026-08-30T13:05:57.000Z</time>
      </trkpt>
      <trkpt lat="44.63838" lon="6.81882">
        <ele>1991</ele>
        <time>2026-08-30T13:06:42.000Z</time>
      </trkpt>
      <trkpt lat="44.63828" lon="6.81877">
        <ele>1984</ele>
        <time>2026-08-30T13:06:57.000Z</time>
      </trkpt>
      <trkpt lat="44.63831" lon="6.81861">
        <ele>1984</ele>
        <time>2026-08-30T13:07:13.000Z</time>
      </trkpt>
      <trkpt lat="44.63825" lon="6.81849">
        <ele>1980</ele>
        <time>2026-08-30T13:07:27.000Z</time>
      </trkpt>
      <trkpt lat="44.63827" lon="6.81834">
        <ele>1979</ele>
        <time>2026-08-30T13:07:40.000Z</time>
      </trkpt>
      <trkpt lat="44.63824" lon="6.81811">
        <ele>1975</ele>
        <time>2026-08-30T13:08:10.000Z</time>
      </trkpt>
      <trkpt lat="44.63816" lon="6.81774">
        <ele>1967</ele>
        <time>2026-08-30T13:08:38.000Z</time>
      </trkpt>
      <trkpt lat="44.63813" lon="6.81769">
        <ele>1966</ele>
        <time>2026-08-30T13:08:58.000Z</time>
      </trkpt>
      <trkpt lat="44.6381" lon="6.81774">
        <ele>1965</ele>
        <time>2026-08-30T13:09:19.000Z</time>
      </trkpt>
      <trkpt lat="44.63815" lon="6.81763">
        <ele>1965</ele>
        <time>2026-08-30T13:09:41.000Z</time>
      </trkpt>
      <trkpt lat="44.63824" lon="6.81696">
        <ele>1959</ele>
        <time>2026-08-30T13:10:45.000Z</time>
      </trkpt>
      <trkpt lat="44.63816" lon="6.81689">
        <ele>1954</ele>
        <time>2026-08-30T13:11:01.000Z</time>
      </trkpt>
      <trkpt lat="44.63815" lon="6.8167">
        <ele>1951</ele>
        <time>2026-08-30T13:11:16.000Z</time>
      </trkpt>
      <trkpt lat="44.63824" lon="6.81649">
        <ele>1953</ele>
        <time>2026-08-30T13:11:49.000Z</time>
      </trkpt>
      <trkpt lat="44.63834" lon="6.81581">
        <ele>1944</ele>
        <time>2026-08-30T13:12:37.000Z</time>
      </trkpt>
      <trkpt lat="44.63848" lon="6.81553">
        <ele>1943</ele>
        <time>2026-08-30T13:13:34.000Z</time>
      </trkpt>
      <trkpt lat="44.63848" lon="6.81559">
        <ele>1945</ele>
        <time>2026-08-30T13:13:54.000Z</time>
      </trkpt>
      <trkpt lat="44.6384" lon="6.81549">
        <ele>1940</ele>
        <time>2026-08-30T13:14:29.000Z</time>
      </trkpt>
      <trkpt lat="44.63841" lon="6.81537">
        <ele>1939</ele>
        <time>2026-08-30T13:14:45.000Z</time>
      </trkpt>
      <trkpt lat="44.63845" lon="6.81539">
        <ele>1941</ele>
        <time>2026-08-30T13:14:58.000Z</time>
      </trkpt>
      <trkpt lat="44.63832" lon="6.81553">
        <ele>1938</ele>
        <time>2026-08-30T13:15:40.000Z</time>
      </trkpt>
      <trkpt lat="44.63824" lon="6.81573">
        <ele>1939</ele>
        <time>2026-08-30T13:15:58.000Z</time>
      </trkpt>
      <trkpt lat="44.63812" lon="6.8158">
        <ele>1934</ele>
        <time>2026-08-30T13:16:15.000Z</time>
      </trkpt>
      <trkpt lat="44.63803" lon="6.81517">
        <ele>1928</ele>
        <time>2026-08-30T13:17:05.000Z</time>
      </trkpt>
      <trkpt lat="44.63809" lon="6.81467">
        <ele>1921</ele>
        <time>2026-08-30T13:17:51.000Z</time>
      </trkpt>
      <trkpt lat="44.63818" lon="6.81442">
        <ele>1916</ele>
        <time>2026-08-30T13:18:13.000Z</time>
      </trkpt>
      <trkpt lat="44.63821" lon="6.81342">
        <ele>1903</ele>
        <time>2026-08-30T13:19:42.000Z</time>
      </trkpt>
      <trkpt lat="44.63826" lon="6.8132">
        <ele>1900</ele>
        <time>2026-08-30T13:20:00.000Z</time>
      </trkpt>
      <trkpt lat="44.63848" lon="6.81283">
        <ele>1892</ele>
        <time>2026-08-30T13:20:37.000Z</time>
      </trkpt>
      <trkpt lat="44.6385" lon="6.81265">
        <ele>1890</ele>
        <time>2026-08-30T13:20:55.000Z</time>
      </trkpt>
      <trkpt lat="44.63837" lon="6.81236">
        <ele>1890</ele>
        <time>2026-08-30T13:21:31.000Z</time>
      </trkpt>
      <trkpt lat="44.63841" lon="6.81225">
        <ele>1890</ele>
        <time>2026-08-30T13:21:44.000Z</time>
      </trkpt>
      <trkpt lat="44.63885" lon="6.81204">
        <ele>1885</ele>
        <time>2026-08-30T13:22:31.000Z</time>
      </trkpt>
      <trkpt lat="44.63904" lon="6.81186">
        <ele>1881</ele>
        <time>2026-08-30T13:23:04.000Z</time>
      </trkpt>
      <trkpt lat="44.63892" lon="6.81174">
        <ele>1881</ele>
        <time>2026-08-30T13:23:30.000Z</time>
      </trkpt>
      <trkpt lat="44.63881" lon="6.81128">
        <ele>1886</ele>
        <time>2026-08-30T13:24:04.000Z</time>
      </trkpt>
      <trkpt lat="44.63869" lon="6.81107">
        <ele>1887</ele>
        <time>2026-08-30T13:24:26.000Z</time>
      </trkpt>
      <trkpt lat="44.63868" lon="6.81036">
        <ele>1889</ele>
        <time>2026-08-30T13:25:20.000Z</time>
      </trkpt>
      <trkpt lat="44.63875" lon="6.80984">
        <ele>1890</ele>
        <time>2026-08-30T13:25:58.000Z</time>
      </trkpt>
      <trkpt lat="44.63883" lon="6.80966">
        <ele>1890</ele>
        <time>2026-08-30T13:26:14.000Z</time>
      </trkpt>
      <trkpt lat="44.63887" lon="6.80919">
        <ele>1900</ele>
        <time>2026-08-30T13:26:49.000Z</time>
      </trkpt>
      <trkpt lat="44.63893" lon="6.80895">
        <ele>1902</ele>
        <time>2026-08-30T13:27:03.000Z</time>
      </trkpt>
      <trkpt lat="44.63911" lon="6.80876">
        <ele>1899</ele>
        <time>2026-08-30T13:27:19.000Z</time>
      </trkpt>
      <trkpt lat="44.63983" lon="6.80826">
        <ele>1886</ele>
        <time>2026-08-30T13:29:25.000Z</time>
      </trkpt>
      <trkpt lat="44.64019" lon="6.80825">
        <ele>1871</ele>
        <time>2026-08-30T13:29:58.000Z</time>
      </trkpt>
      <trkpt lat="44.64056" lon="6.80809">
        <ele>1862</ele>
        <time>2026-08-30T13:30:44.000Z</time>
      </trkpt>
      <trkpt lat="44.64108" lon="6.80766">
        <ele>1850</ele>
        <time>2026-08-30T13:31:53.000Z</time>
      </trkpt>
      <trkpt lat="44.64169" lon="6.8069">
        <ele>1837</ele>
        <time>2026-08-30T13:33:13.000Z</time>
      </trkpt>
      <trkpt lat="44.64167" lon="6.80687">
        <ele>1838</ele>
        <time>2026-08-30T13:33:58.000Z</time>
      </trkpt>
      <trkpt lat="44.64171" lon="6.80704">
        <ele>1836</ele>
        <time>2026-08-30T13:35:28.000Z</time>
      </trkpt>
      <trkpt lat="44.64212" lon="6.80615">
        <ele>1827</ele>
        <time>2026-08-30T13:37:12.000Z</time>
      </trkpt>
      <trkpt lat="44.6423" lon="6.80494">
        <ele>1821</ele>
        <time>2026-08-30T13:38:32.000Z</time>
      </trkpt>
      <trkpt lat="44.64257" lon="6.80433">
        <ele>1812</ele>
        <time>2026-08-30T13:39:22.000Z</time>
      </trkpt>
      <trkpt lat="44.64265" lon="6.80402">
        <ele>1815</ele>
        <time>2026-08-30T13:39:47.000Z</time>
      </trkpt>
      <trkpt lat="44.64314" lon="6.8034">
        <ele>1808</ele>
        <time>2026-08-30T13:40:48.000Z</time>
      </trkpt>
      <trkpt lat="44.64341" lon="6.80289">
        <ele>1804</ele>
        <time>2026-08-30T13:41:35.000Z</time>
      </trkpt>
      <trkpt lat="44.64347" lon="6.80262">
        <ele>1805</ele>
        <time>2026-08-30T13:41:51.000Z</time>
      </trkpt>
      <trkpt lat="44.64364" lon="6.80223">
        <ele>1799</ele>
        <time>2026-08-30T13:42:20.000Z</time>
      </trkpt>
      <trkpt lat="44.6438" lon="6.80156">
        <ele>1795</ele>
        <time>2026-08-30T13:43:06.000Z</time>
      </trkpt>
      <trkpt lat="44.64444" lon="6.80043">
        <ele>1788</ele>
        <time>2026-08-30T13:44:36.000Z</time>
      </trkpt>
      <trkpt lat="44.6447" lon="6.80014">
        <ele>1784</ele>
        <time>2026-08-30T13:45:06.000Z</time>
      </trkpt>
      <trkpt lat="44.64566" lon="6.80002">
        <ele>1769</ele>
        <time>2026-08-30T13:46:36.000Z</time>
      </trkpt>
      <trkpt lat="44.64576" lon="6.79993">
        <ele>1767</ele>
        <time>2026-08-30T13:46:49.000Z</time>
      </trkpt>
      <trkpt lat="44.64606" lon="6.7994">
        <ele>1760</ele>
        <time>2026-08-30T13:47:29.000Z</time>
      </trkpt>
      <trkpt lat="44.6465" lon="6.79826">
        <ele>1744</ele>
        <time>2026-08-30T13:48:54.000Z</time>
      </trkpt>
      <trkpt lat="44.6467" lon="6.79734">
        <ele>1730</ele>
        <time>2026-08-30T13:49:55.000Z</time>
      </trkpt>
      <trkpt lat="44.64668" lon="6.79664">
        <ele>1721</ele>
        <time>2026-08-30T13:50:43.000Z</time>
      </trkpt>
      <trkpt lat="44.6466" lon="6.79617">
        <ele>1718</ele>
        <time>2026-08-30T13:51:16.000Z</time>
      </trkpt>
      <trkpt lat="44.64662" lon="6.7959">
        <ele>1716</ele>
        <time>2026-08-30T13:51:30.000Z</time>
      </trkpt>
      <trkpt lat="44.6467" lon="6.79563">
        <ele>1712</ele>
        <time>2026-08-30T13:51:49.000Z</time>
      </trkpt>
      <trkpt lat="44.64681" lon="6.79542">
        <ele>1710</ele>
        <time>2026-08-30T13:52:06.000Z</time>
      </trkpt>
      <trkpt lat="44.64705" lon="6.794">
        <ele>1701</ele>
        <time>2026-08-30T13:53:41.000Z</time>
      </trkpt>
      <trkpt lat="44.64723" lon="6.79349">
        <ele>1697</ele>
        <time>2026-08-30T13:54:18.000Z</time>
      </trkpt>
      <trkpt lat="44.64765" lon="6.79304">
        <ele>1694</ele>
        <time>2026-08-30T13:55:27.000Z</time>
      </trkpt>
      <trkpt lat="44.64771" lon="6.79271">
        <ele>1697</ele>
        <time>2026-08-30T13:56:16.000Z</time>
      </trkpt>
      <trkpt lat="44.64791" lon="6.79272">
        <ele>1693</ele>
        <time>2026-08-30T13:56:39.000Z</time>
      </trkpt>
      <trkpt lat="44.64823" lon="6.79222">
        <ele>1692</ele>
        <time>2026-08-30T13:57:22.000Z</time>
      </trkpt>
      <trkpt lat="44.64818" lon="6.79219">
        <ele>1693</ele>
        <time>2026-08-30T13:57:46.000Z</time>
      </trkpt>
      <trkpt lat="44.64856" lon="6.79229">
        <ele>1689</ele>
        <time>2026-08-30T13:58:25.000Z</time>
      </trkpt>
      <trkpt lat="44.64882" lon="6.79225">
        <ele>1689</ele>
        <time>2026-08-30T13:58:45.000Z</time>
      </trkpt>
      <trkpt lat="44.64971" lon="6.79184">
        <ele>1683</ele>
        <time>2026-08-30T14:00:16.000Z</time>
      </trkpt>
      <trkpt lat="44.65054" lon="6.7913">
        <ele>1678</ele>
        <time>2026-08-30T14:01:28.000Z</time>
      </trkpt>
      <trkpt lat="44.6511" lon="6.79081">
        <ele>1676</ele>
        <time>2026-08-30T14:02:19.000Z</time>
      </trkpt>
      <trkpt lat="44.65198" lon="6.79033">
        <ele>1673</ele>
        <time>2026-08-30T14:03:36.000Z</time>
      </trkpt>
      <trkpt lat="44.65211" lon="6.79021">
        <ele>1672</ele>
        <time>2026-08-30T14:03:54.000Z</time>
      </trkpt>
      <trkpt lat="44.65212" lon="6.79011">
        <ele>1671</ele>
        <time>2026-08-30T14:04:51.000Z</time>
      </trkpt>
    </trkseg>
  </trk>
</gpx>